Terminal Aerodrome Forecast
Issued by NWS

Home | Current Version | Previous Version | Text Only | Print | Product List | Glossary On
Versions: 1 2 3 4 5 6 7 8 9 10 11 12 13 14 15 16 17 18 19 20 21 22 23 24 25 26 27 28 29 30 31 32
301
FTUS45 KGJT 060520
TAFTEX
TAF
KTEX 060520Z 0606/0706 11007KT P6SM FEW250
     FM061500 08008KT 4SM BR OVC010
     FM061700 34006KT P6SM FEW250
     FM061900 24007KT P6SM SKC
     FM070200 12005KT P6SM SKC=

USA.gov is the U.S. government's official web portal to all federal, state and local government web resources and services.